Force, PA (15841)

10:13 PM EDT on August 27, 2016 (GMT -0400)
APRSWXNET | | Change Station

Elev 1580 ft 41.42 °N, 78.58 °W | Updated 26 minutes ago

Clear
Clear
68 °F
Feels Like 68 °F
N
0
Wind Variable Wind from East
Gusts 1.0 mph

Today
High -- | Low -- °F
--% Chance of Precip.
Yesterday
High -- | Low -- °F
Precip. -- in
Pressure 30.22 in
Visibility 10.0 miles
Clouds Clear
Dew Point 66 °F
Humidity 92%
Rainfall in
Snow Depth Not available.
6:35 AM 7:54 PM
Waning Crescent, 19% visible
METAR KFIG 280154Z AUTO 35006KT 10SM CLR 22/21 A3024 RMK AO2 SLP232 T02170206
Pressure 30.22 in
Visibility 10.0 miles
Clouds Clear
Dew Point 66 °F
Humidity 92%
Rainfall in
Snow Depth Not available.
6:35 AM 7:54 PM
Waning Crescent, 19% visible
METAR KFIG 280154Z AUTO 35006KT 10SM CLR 22/21 A3024 RMK AO2 SLP232 T02170206

10-Day Weather Forecast

Almanac

Astronomy

Aug. 27, 2016 Rise Set
Actual Time
Civil Twilight
Nautical Twilight
Astronomical Twilight
Moon
Length of Visible Light
Length of Day
Tomorrow will be .
, % of the Moon is Illuminated

Today's Extremes

State Highs State Lows

Community

WunderPhotos

Upload Photos

1,935,493 photos uploaded!

WunderBlog® & News

Nearby

Air Quality

  Air Quality AQ Index Pollutant
Not available.

Snow Depth

Station Depth Elevation

Earthquake Activity

City Distance Mag. Time & Date
Minimum magnitude displayed is 2.5.

Coastal Water Temperatures

Place Temperature

Stations

Nearby Weather Stations

Station Location Temp. Windchill Dew Point Humidity Wind Precip. Elev Updated Type
                   

Watches & Warnings

There are currently no watches in effect.